Tiempo atmosférico en la estación meteorológica de León Aeropuerto, León (916 m.)



Fecha
DESCASC
Temp. máxima en grados centígrados (hora)
DESCASC
Temp. mínima en grados centígrados (hora)
DESCASC
Temp. media en grados centígrados
DESCASC
Racha de viento máxima en m/sg (hora)
DESCASC
Velocidad máxima media en intervalos de 10 minutos(hora)
DESCASC
Precipitaciones diarias en mm
DESCASC
Precipitaciones de 00:00 a 06:00 en mm
DESCASC
Precipitaciones de 06:00 a 12:00 en mm
DESCASC
Precipitaciones de 12:00 a 18:00 en mm
DESCASC
Precipitaciones de 18:00 a 24:00 en mm
DESCASC

Gráficas

Temp. máximas Temp. mínimas Temp. medias Precipitaciones Rachas de viento máximas Velocidades máximas media en intervalos de 10 minutos

Datos horarios

Fecha y hora oficial Temperatura (ºC) Velocidad del viento (km/h) Dirección del viento Racha (km/h) Dirección de racha Precipitación (mm) Presión (hPa) Tendencia (hPa) Humedad (%)
2020-05-28 23:00:00 17.9 13 Norte 21 Norte 0 916.2 0.3 67
2020-05-28 22:00:00 21.3 14 Norte 26 Norte 0 915.9 0.4 51
2020-05-28 21:00:00 21.5 20 Norte 39 Nordeste 0 916.1 0.1 56
2020-05-28 20:00:00 24.2 8 Norte 24 Este 0 915.9 -0.3 48
2020-05-28 19:00:00 29.1 10 Este 22 Este 0 915.5 -1.5 22
2020-05-28 18:00:00 28.4 9 Sudeste 18 Sur 0 916 -1.7 24
2020-05-28 17:00:00 27.7 6 Oeste 17 Este 0 916.2 -2.1 24
2020-05-28 16:00:00 26.6 6 Sudeste 17 Sur 0 917 -1.9 30
2020-05-28 15:00:00 25.5 8 Sudeste 18 Oeste 0 917.7 -1.7 34
2020-05-28 14:00:00 24.6 8 Sudoeste 17 Sudeste 0 918.3 -1.5 38
2020-05-28 13:00:00 23.5 8 Sudeste 15 Sur 0 918.9 -1 38
2020-05-28 12:00:00 22.3 6 Sur 13 Sur 0 919.4 -0.6 39
2020-05-28 11:00:00 21 8 Sudeste 15 Sudeste 0 919.8 -0.3 39
2020-05-28 10:00:00 20 6 Sur 15 Este 0 919.9 -0.2 46
2020-05-28 09:00:00 18.3 6 Nordeste 11 Nordeste 0 920 -0.1 63
2020-05-28 08:00:00 16.4 7 Norte 13 Norte 0 920.1 0 73
2020-05-28 07:00:00 14.7 10 Norte 13 Norte 0 920.1 0.2 77
2020-05-28 06:00:00 15.2 9 Norte 13 Norte 0 920.1 0.1 76
2020-05-28 05:00:00 16 10 Norte 15 Nordeste 0 920.1 -0.1 72
2020-05-28 04:00:00 17.1 12 Nordeste 18 Nordeste 0 919.9 -0.2 70
2020-05-28 03:00:00 18.2 11 Nordeste -- -- -- 920 -- 66
2020-05-28 02:00:00 18.2 10 Norte 17 Norte 0 920.2 -- 67
2020-05-28 01:00:00 18.8 9 Nordeste 15 Nordeste 0 920.1 -- 64
2020-05-28 00:00:00 20.3 8 Nordeste 18 Nordeste 0 920.2 -- 56
2020-05-27 23:00:00 21.8 9 Nordeste 17 Este 0 919.8 -- 49
2020-05-27 22:00:00 23.6 9 Este 17 Este 0 919.2 -- 40
2020-05-27 21:00:00 25.6 10 Este 21 Este 0 918.9 -- 34
2020-05-27 20:00:00 26.2 13 Este 22 Este 0 918.7 -- 34
2020-05-27 19:00:00 26.5 10 Este 26 Sudeste 0 918.8 -- 34
2020-05-27 18:00:00 26.8 11 Este 22 Sudeste 0 919.1 -- 34
2020-05-27 17:00:00 26.4 15 Este 24 Este 0 919.4 -- 36
2020-05-27 16:00:00 25.7 13 Este 24 Este 0 919.8 -- 39
2020-05-27 15:00:00 25.3 10 Sudeste 28 Este 0 920.3 -- 42
2020-05-27 14:00:00 23.6 10 Este 26 Este 0 920.7 -- 47
2020-05-27 13:00:00 23 12 Este 24 Este 0 921.1 -- 49
2020-05-27 12:00:00 21.6 12 Este 21 Este 0 921.4 -- 52
2020-05-27 11:00:00 20.1 9 Nordeste 17 Este 0 921.7 -- 51
2020-05-27 10:00:00 16.9 9 Nordeste 15 Nordeste 0 922 -- 47
2020-05-27 09:00:00 15.4 9 Norte 15 Norte 0 921.9 -- 52
2020-05-27 08:00:00 13.3 8 Norte 13 Norte 0 921.6 -- 58
2020-05-27 07:00:00 11.5 9 Norte 15 Nordeste 0 921.3 -- 68
2020-05-27 06:00:00 11.1 6 Norte 13 Norte 0 921.3 -- 75
2020-05-27 05:00:00 11.8 7 Nordeste 13 Norte 0 921.2 -- 79
2020-05-27 04:00:00 12.8 8 Norte 11 Norte 0 921.3 -- 78
2020-05-27 03:00:00 13.9 9 Norte -- -- -- 921.7 -- 75
2020-05-27 02:00:00 14 10 Norte 13 Norte 0 921.8 -- 75
2020-05-27 01:00:00 16.4 9 Norte 13 Este 0 921.7 -- 65
2020-05-27 00:00:00 17.5 7 Sudeste 13 Sudeste 0 921.8 -- 61
2020-05-26 23:00:00 18.7 8 Este 24 Este 0 921.4 -- 57
2020-05-26 22:00:00 20.2 13 Este 24 Este 0 920.9 -- 54
2020-05-26 21:00:00 22.6 12 Este 30 Sudeste 0 920.3 -- 46
2020-05-26 20:00:00 23.7 21 Sudeste 32 Sudeste 0 920.1 -- 41
2020-05-26 19:00:00 24.6 19 Sudeste 30 Este 0 920.3 -- 37
2020-05-26 18:00:00 24.9 16 Este 28 Sudeste 0 920.2 -- 31
2020-05-26 17:00:00 24.8 13 Sudeste 28 Este 0 920.5 -- 30
2020-05-26 16:00:00 24.1 16 Sudeste 37 Este 0 921 -- 31
2020-05-26 15:00:00 23.6 13 Sudeste 30 Nordeste 0 921.5 -- 31
2020-05-26 14:00:00 22.5 13 Este 28 Este 0 922 -- 32
2020-05-26 13:00:00 21.8 16 Este 24 Este 0 922.5 -- 30
2020-05-26 12:00:00 20.2 7 Este 18 Nordeste 0 922.8 -- 34
2020-05-26 11:00:00 18.8 7 Este 15 Este 0 923.1 -- 37
2020-05-26 10:00:00 17.8 8 Este 11 Este 0 923 -- 42
2020-05-26 09:00:00 15.9 3 Nordeste 11 Norte 0 922.8 -- 48
2020-05-26 08:00:00 12.2 2 Norte 13 Norte 0 922.7 -- 56
2020-05-26 07:00:00 10.8 12 Norte 21 Norte 0 922.5 -- 52
2020-05-26 06:00:00 8.1 10 Norte 13 Norte 0 922.3 -- 64
2020-05-26 05:00:00 9.9 6 Norte 9 Norte 0 922.4 -- 60
2020-05-26 04:00:00 9.7 6 Norte 13 Norte 0 922.4 -- 59
2020-05-26 03:00:00 11.4 7 Nordeste -- -- -- 922.7 -- 54
2020-05-26 02:00:00 11.6 12 Norte 17 Norte 0 922.8 -- 58
2020-05-26 01:00:00 12.1 10 Norte 15 Norte 0 922.8 -- 64
2020-05-26 00:00:00 13.5 12 Norte 18 Norte 0 922.8 -- 60
2020-05-25 23:00:00 15.7 12 Nordeste 21 Nordeste 0 922.3 -- 53
2020-05-25 22:00:00 17.3 14 Nordeste 24 Nordeste 0 921.4 -- 51
2020-05-25 21:00:00 19.8 15 Norte 26 Norte 0 920.8 -- 46
2020-05-25 20:00:00 22.4 18 Norte 33 Norte 0 920.3 -- 41
2020-05-25 19:00:00 22.9 15 Norte 24 Norte 0 919.7 -- 44
2020-05-25 18:00:00 25.5 10 Este 22 Sudeste 0 919.5 -- 37
2020-05-25 17:00:00 24.8 9 Este 18 Sudeste 0 919.7 -- 40
2020-05-25 16:00:00 25.3 8 Sudeste 22 Sur 0 920 -- 41
2020-05-25 15:00:00 24.6 9 Sur 18 Sur 0 920.3 -- 41
2020-05-25 14:00:00 23 9 Sur 18 Sudoeste 0 920.6 -- 39
2020-05-25 13:00:00 21.9 8 Sur 18 Sudoeste 0 920.9 -- 41
2020-05-25 12:00:00 21 8 Sur 17 Sur 0 921.1 -- 47
2020-05-25 11:00:00 19.6 6 Este 11 Este 0 921.2 -- 55
2020-05-25 10:00:00 16.7 0 Calma 8 Este 0 921.1 -- 62
2020-05-25 09:00:00 15.1 3 Este 8 Norte 0 921.3 -- 67
2020-05-25 08:00:00 11.2 0 Calma 8 Este 0 921.2 -- 79
2020-05-25 07:00:00 11.5 5 Oeste 8 Oeste 0 920.8 -- 77
2020-05-25 06:00:00 11.3 5 Norte 13 Norte 0 920.7 -- 79
2020-05-25 05:00:00 11.8 5 Noroeste 17 Noroeste 0 920.8 -- 77
2020-05-25 04:00:00 12.1 13 Noroeste 17 Noroeste 0 920.9 -- 75
2020-05-25 03:00:00 13.3 6 Oeste -- -- -- 921.2 -- 75
2020-05-25 02:00:00 15.6 6 Oeste 9 Norte 0 921.4 -- 65
2020-05-25 01:00:00 16.2 8 Norte 9 Norte 0 921.4 -- 63
2020-05-25 00:00:00 17.1 8 Sudeste 13 Sudeste 0 921.4 -- 57
2020-05-24 23:00:00 18.9 10 Este 28 Sudeste 0 921.1 -- 46
2020-05-24 22:00:00 22.1 8 Sudeste 9 Sudeste 0 920.2 -- 37
2020-05-24 21:00:00 24 5 Sur 9 Este 0 920.3 -- 33
2020-05-24 20:00:00 24.4 5 Sudeste 13 Sur 0 920.2 -- 33
2020-05-24 19:00:00 25.1 6 Sur 13 Oeste 0 920.3 -- 33
2020-05-24 18:00:00 24.6 8 Sudeste 15 Nordeste 0 920.6 -- 34
2020-05-24 17:00:00 24.1 8 Sur 15 Sudeste 0 920.9 -- 32
2020-05-24 16:00:00 23 8 Sudeste 13 Sudeste 0 921.5 -- 33
2020-05-24 15:00:00 21.7 8 Sudeste 17 Sudeste 0 922 -- 33
2020-05-24 14:00:00 20.3 5 Sudeste 17 Este 0 922.3 -- 38
2020-05-24 13:00:00 19.3 7 Sur 15 Sudeste 0 922.6 -- 44
2020-05-24 12:00:00 17.9 7 Sudeste 13 Sudeste 0 922.9 -- 47
2020-05-24 11:00:00 16 6 Este 15 Sudeste 0 923.2 -- 55
2020-05-24 10:00:00 14.6 3 Este 9 Norte 0 923.5 -- 64
2020-05-24 09:00:00 11.7 4 Norte 9 Norte 0 923.5 -- 81
2020-05-24 08:00:00 8.9 0 Calma 15 Noroeste 0 923.6 -- 89
2020-05-24 07:00:00 8 10 Noroeste 13 Noroeste 0 923.4 -- 91
2020-05-24 06:00:00 7.9 9 Noroeste 13 Noroeste 0 923.8 -- 90
2020-05-24 05:00:00 8.3 8 Noroeste 9 Noroeste 0 924 -- 88
2020-05-24 04:00:00 9.7 2 Norte 8 Sudeste 0 924.1 -- 81
2020-05-24 03:00:00 10 5 Sur -- -- -- 924.5 -- 81
2020-05-24 02:00:00 10.9 6 Sudeste 11 Sudeste 0 924.6 -- 79
2020-05-24 01:00:00 11.3 8 Este 17 Este 0 925 -- 78
2020-05-24 00:00:00 12.1 12 Este 18 Sudeste 0 924.9 -- 75
2020-05-23 23:00:00 13.4 11 Sudeste 30 Este 0 924.5 -- 70
2020-05-23 22:00:00 15.7 17 Este 30 Este 0 923.6 -- 66
2020-05-23 21:00:00 19.1 19 Sudeste 37 Sudeste 0 922.7 -- 57
2020-05-23 20:00:00 22.6 9 Sudeste 15 Sudeste 0 922.1 -- 40
2020-05-23 19:00:00 23 9 Sur 17 Sudeste 0 922.2 -- 40
2020-05-23 18:00:00 23.6 9 Sudeste 21 Sudeste 0 922.3 -- 40
2020-05-23 17:00:00 22.3 4 Noroeste 21 Sur 0 922.7 -- 44
2020-05-23 16:00:00 21.1 8 Sudeste 17 Sudeste 0 922.9 -- 49
2020-05-23 15:00:00 20.7 10 Sudeste 21 Este 0 923.3 -- 52
2020-05-23 14:00:00 18.4 6 Sudeste 18 Sudeste 0 923.7 -- 62
2020-05-23 13:00:00 17.3 12 Sudeste 30 Este 0 924 -- 69
2020-05-23 12:00:00 17 9 Sudeste 18 Este 0 924 -- 71
2020-05-23 11:00:00 14.7 10 Sudeste 17 Sudeste 0 923.8 -- 79
2020-05-23 10:00:00 13.9 13 Sudeste 21 Sudeste 0 923.4 -- 80
2020-05-23 09:00:00 13.5 6 Este 9 Sudeste 0 923.1 -- 82
2020-05-23 08:00:00 13.8 8 Este 11 Este 0 922.5 -- 80
2020-05-23 07:00:00 12.1 2 Oeste 9 Noroeste 0 921.7 -- 85
2020-05-23 06:00:00 12.8 6 Nordeste 15 Noroeste 0 920.9 -- 86
2020-05-23 05:00:00 13.8 8 Norte 21 Oeste 0 920.7 -- 83
2020-05-23 04:00:00 14.7 13 Oeste 22 Oeste 0 920.7 -- 81
2020-05-23 03:00:00 15.7 15 Oeste -- -- -- 920.8 -- 77
2020-05-23 02:00:00 16.6 16 Oeste 30 Oeste 0 920.6 -- 74
2020-05-23 01:00:00 17.8 14 Oeste 24 Oeste 0 920.6 -- 68
2020-05-23 00:00:00 18.7 13 Oeste 28 Oeste 0 920.1 -- 61
2020-05-22 23:00:00 19.8 17 Oeste 24 Oeste 0 919.5 -- 53
2020-05-22 22:00:00 20.5 13 Oeste 21 Oeste 0 918.7 -- 46
2020-05-22 21:00:00 23.9 14 Oeste 26 Oeste 0 918.3 -- 38
2020-05-22 20:00:00 26.8 11 Sur 26 Sudoeste 0 917.8 -- 34
2020-05-22 19:00:00 26.2 18 Sudoeste 30 Sudoeste 0 917.8 -- 31
2020-05-22 18:00:00 27.6 17 Sudoeste 30 Sudoeste 0 918.1 -- 28
2020-05-22 17:00:00 27 14 Sudoeste 30 Sudoeste 0 918.4 -- 33
2020-05-22 16:00:00 26.3 16 Sur 28 Sur 0 918.8 -- 33
2020-05-22 15:00:00 25.4 16 Sudoeste 28 Sudoeste 0 919.5 -- 32
2020-05-22 14:00:00 24.5 10 Sudeste 22 Sur 0 919.8 -- 33
2020-05-22 13:00:00 23.7 12 Sur 22 Sudoeste 0 920.1 -- 38
2020-05-22 12:00:00 22.6 10 Sudoeste 18 Sur 0 920 -- 42
2020-05-22 11:00:00 21.2 7 Sur 11 Sudeste 0 919.8 -- 53
2020-05-22 10:00:00 19.6 3 Sudeste 8 Sudeste 0 919.7 -- 63
2020-05-22 09:00:00 18 0 Calma 5 Nordeste 0 919.3 -- 71
2020-05-22 08:00:00 14.8 5 Noroeste 8 Noroeste 0 919.1 -- 83
2020-05-22 07:00:00 12.9 6 Noroeste 9 Noroeste 0 918.4 -- 83
2020-05-22 06:00:00 12.9 6 Noroeste 8 Noroeste 0 918.2 -- 82
2020-05-22 05:00:00 14.8 -- -- -- -- 0 918.1 -- 75
2020-05-22 04:00:00 16.1 9 Norte 11 Norte 0 918 -- 74
2020-05-22 03:00:00 16.3 2 Oeste -- -- -- 918 -- 72
2020-05-22 02:00:00 17 9 Noroeste 15 Norte 0 918 -- 72
2020-05-22 01:00:00 18.1 9 Noroeste 18 Oeste 0 917.8 -- 68
2020-05-22 00:00:00 18.4 14 Oeste 21 Oeste 0 917.9 1.5 60
2020-05-21 23:00:00 19.2 11 Sudoeste 13 Oeste 0 917.6 -- 52
2020-05-21 22:00:00 21.2 8 Sudoeste 15 Sudoeste 0 917 -- 45
2020-05-21 21:00:00 24.3 14 Sudoeste 24 Sudoeste 0 916.4 -- 33
2020-05-21 20:00:00 26.3 15 Sudoeste 24 Sudoeste 0 916.1 -- 30
2020-05-21 19:00:00 26.6 9 Sudoeste 30 Sudoeste 0 915.9 -- 32
2020-05-21 18:00:00 27 11 Sur 22 Sur 0 916.1 -- 29
2020-05-21 17:00:00 26.3 11 Sudoeste 28 Sudoeste 0 916.4 -- 29
2020-05-21 16:00:00 25.9 10 Sur 22 Sudoeste 0 916.7 -- 30
2020-05-21 15:00:00 24.8 10 Sur 26 Sur 0 916.9 -- 33
2020-05-21 14:00:00 23.6 8 Sudeste 15 Sur 0 917.3 -- 31
2020-05-21 13:00:00 22.4 5 Este 13 Sudeste 0 917.7 0 37
2020-05-21 12:00:00 21.4 9 Sudeste 15 Sudeste 0 917.7 -- 40
2020-05-21 11:00:00 20.1 6 Sudeste 13 Este 0 918 -- 41
2020-05-21 10:00:00 18.9 5 Este 9 Este 0 917.7 -- 41
2020-05-21 09:00:00 14.4 7 Norte 11 Noroeste 0 917.7 -- 73
2020-05-21 08:00:00 11.9 5 Norte 9 Norte 0 917.1 -- 79
2020-05-21 07:00:00 11.2 4 Noroeste 9 Noroeste 0 916.5 -- 79
2020-05-21 06:00:00 12.4 2 Noroeste 13 Norte 0 916.6 -- 75
2020-05-21 05:00:00 12 4 Noroeste 11 Norte 0 916.7 -- 73
2020-05-21 04:00:00 13 7 Norte 11 Norte 0 916.6 -- 68
2020-05-21 03:00:00 14.3 2 Noroeste -- -- -- 916.6 -- 59
2020-05-21 02:00:00 14 5 Oeste 11 Oeste 0 916.6 -- 62
2020-05-21 01:00:00 15.1 6 Norte 15 Norte 0 916.2 -- 58
2020-05-21 00:00:00 15.7 12 Norte 17 Norte 0 916.1 -- 56
2020-05-20 23:00:00 17.5 9 Norte 18 Norte 0 915.5 -- 51
2020-05-20 22:00:00 19.2 12 Norte 17 Norte 0 914.4 -- 47
2020-05-20 21:00:00 21.6 7 Norte 13 Norte 0 914.4 -- 47
2020-05-20 20:00:00 23.1 6 Noroeste 11 Noroeste 0 913.8 -- 45
2020-05-20 19:00:00 24.9 6 Sudoeste 18 Sur 0 913.5 -- 29
2020-05-20 18:00:00 27.3 13 Sur 24 Sur 0 913.3 -- 21
2020-05-20 17:00:00 26.3 11 Sur 22 Sudoeste 0 913.8 -- 25
2020-05-20 16:00:00 25.7 13 Sur 22 Sur 0 914.1 -- 27
2020-05-20 15:00:00 24.7 11 Sur 26 Sur 0 914.5 -- 34
2020-05-20 14:00:00 23.7 13 Sur 21 Sur 0 915 -- 38
2020-05-20 13:00:00 22.1 12 Sur 22 Sur 0 915.4 -- 40
2020-05-20 12:00:00 20.9 11 Sudoeste 18 Sudoeste 0 915.6 -- 41
2020-05-20 11:00:00 19.5 10 Sur 15 Sur 0 915.6 -- 46
2020-05-20 10:00:00 18.5 4 Sudeste 8 Este 0 915.6 -- 43
2020-05-20 09:00:00 16.9 2 Este 8 Noroeste 0 915.7 -- 63
2020-05-20 08:00:00 12.9 0 Calma 11 Noroeste 0 915.6 -- 73
2020-05-20 07:00:00 10.8 9 Oeste 13 Noroeste 0 915.5 -- 76
2020-05-20 06:00:00 10.7 10 Oeste 13 Oeste 0 915.5 -- 78
2020-05-20 05:00:00 12 9 Oeste 11 Oeste 0 915.7 -- 72
2020-05-20 04:00:00 12.3 8 Norte 11 Norte 0 916 -- 69
2020-05-20 03:00:00 12.9 8 Norte -- -- -- 916.4 -- 67
2020-05-20 02:00:00 13.7 9 Norte 11 Norte 0 916.6 -- 64
2020-05-20 01:00:00 14.2 7 Norte 9 Norte 0 916.6 -- 65
2020-05-20 00:00:00 16 7 Norte 13 Nordeste 0 916.8 -- 61
2020-05-19 23:00:00 18.3 4 Sudoeste 8 Sudoeste 0 916.1 -- 53
2020-05-19 22:00:00 21.3 0 Calma 8 Sudeste 0 915.5 -- 44
2020-05-19 21:00:00 24.4 5 Sudeste 11 Sudeste 0 915.5 -- 30
2020-05-19 20:00:00 23.7 7 Sudeste 15 Sur 0 915.6 -- 31
2020-05-19 19:00:00 24.4 12 Sur 18 Sur 0 915.7 -- 30
2020-05-19 18:00:00 25 10 Sur 18 Sur 0 916 -- 28
2020-05-19 17:00:00 24.4 10 Sur 18 Sur 0 916.2 -- 29
2020-05-19 16:00:00 23.7 9 Sur 18 Sur 0 916.8 -- 30
2020-05-19 15:00:00 22.6 9 Sur 22 Sudoeste 0 917.2 -- 38
2020-05-19 14:00:00 21.7 7 Sudeste 18 Sur 0 917.7 -- 40
2020-05-19 13:00:00 20.7 8 Sur 17 Sur 0 918.1 -- 46
2020-05-19 12:00:00 18.5 5 Sur 13 Sur 0 918.4 -- 53
2020-05-19 11:00:00 15.3 9 Sudoeste 13 Oeste 0 918.6 -- 64
2020-05-19 10:00:00 13 4 Sudeste 8 Sudeste 0 918.7 -- 74
2020-05-19 09:00:00 12.3 5 Este 8 Este 0 918.6 -- 72
2020-05-19 08:00:00 11 4 Sur 11 Noroeste 0 918.5 -- 74
2020-05-19 07:00:00 10.1 8 Noroeste 11 Noroeste 0 918.1 -- 74
2020-05-19 06:00:00 10.8 7 Noroeste 9 Noroeste 0 918.4 -- 74
2020-05-19 05:00:00 11.9 3 Norte 11 Noroeste 0 918.7 -- 67
2020-05-19 04:00:00 12.7 7 Oeste 13 Oeste 0 919 -- 66
2020-05-19 03:00:00 13 8 Oeste -- -- -- 919.2 -- 70
2020-05-19 02:00:00 13.7 6 Noroeste 9 Norte 0 919.4 -- 65
2020-05-19 01:00:00 13.7 5 Norte 11 Norte 0 919.5 -- 64
2020-05-19 00:00:00 14.7 8 Norte 18 Sudeste 0 919.4 -- 60
2020-05-18 23:00:00 15.3 12 Norte 15 Norte 0 919 -- 57
2020-05-18 22:00:00 18.9 0 Calma 8 Sur 0 918.5 -- 50
2020-05-18 21:00:00 22 5 Sudeste 15 Sudeste 0 918.1 -- 32
2020-05-18 20:00:00 23.4 10 Sudeste 17 Sudeste 0 918.1 -- 28
2020-05-18 19:00:00 23.9 10 Sudeste 22 Sudeste 0 918.2 -- 27
2020-05-18 18:00:00 23.7 13 Sudeste 26 Sur 0 918.4 -- 26
2020-05-18 17:00:00 23.1 9 Sudeste 21 Sudeste 0 918.6 -- 27
2020-05-18 16:00:00 22.5 12 Sur 22 Sur 0 919 -- 28
2020-05-18 15:00:00 21.4 12 Sur 22 Sur 0 919.4 -- 31
2020-05-18 14:00:00 20.6 11 Sur 18 Sur 0 919.8 -- 29
2020-05-18 13:00:00 18.9 6 Sur 18 Sur 0 920.2 -- 36
2020-05-18 12:00:00 17.3 12 Sudoeste 18 Sudoeste 0 920.2 -- 43
2020-05-18 11:00:00 16.2 14 Sudoeste 18 Oeste 0 920.4 -- 47
2020-05-18 10:00:00 14.5 5 Sudoeste 9 Oeste 0 920.3 -- 56
2020-05-18 09:00:00 11.4 4 Nordeste 9 Norte 0 920.2 -- 70
2020-05-18 08:00:00 8.2 3 Norte 9 Norte 0 920.1 -- 77
2020-05-18 07:00:00 7.2 8 Norte 9 Norte 0 919.8 -- 78
2020-05-18 06:00:00 7.5 2 Noroeste 11 Noroeste 0 919.5 -- 77
2020-05-18 05:00:00 7.9 10 Noroeste 13 Noroeste 0 919.6 -- 75
2020-05-18 04:00:00 8.9 -- -- -- -- 0 919.7 -- 70
2020-05-18 03:00:00 8.9 9 Noroeste 11 Noroeste 0 919.9 -- 70
2020-05-18 02:00:00 9.8 6 Norte 9 Norte 0 919.9 -- 70
2020-05-18 01:00:00 10.9 4 Noroeste 13 Este 0 920 -- 65
2020-05-18 00:00:00 12.2 5 Nordeste 13 Norte 0 919.8 -- 57
2020-05-17 23:00:00 12.6 12 Norte 15 Norte 0 919.3 -- 61
2020-05-17 22:00:00 17.8 3 Sudoeste 11 Sur 0 918.4 -- 39
2020-05-17 21:00:00 20.6 8 Sur 13 Sur 0 918.1 -- 31
2020-05-17 20:00:00 20.9 8 Sur 15 Sur 0 917.9 -- 29
2020-05-17 19:00:00 20.7 6 Sur 18 Sur 0 918 -- 28
2020-05-17 18:00:00 20.4 12 Sur 18 Sur 0 918 -- 29
2020-05-17 17:00:00 19.6 8 Sur 21 Sudeste 0 918.2 -- 27
2020-05-17 16:00:00 19 8 Sur 17 Sudeste 0 918.6 -- 28
2020-05-17 15:00:00 18.2 5 Sudeste 15 Sur 0 919 -- 33
2020-05-17 14:00:00 16.7 5 Sur 13 Sur 0 919.3 -- 37
2020-05-17 13:00:00 15.6 6 Sudeste 15 Sudeste 0 919.6 -- 49
2020-05-17 12:00:00 14.5 8 Sur 13 Sudeste 0 919.6 -- 56
2020-05-17 11:00:00 13.1 4 Sudeste 11 Este 0 919.4 -- 63
2020-05-17 10:00:00 10.6 6 Nordeste 11 Este 0 919.3 -- 72
2020-05-17 09:00:00 7 5 Nordeste 11 Nordeste 0 919.1 -- 80
2020-05-17 08:00:00 4.6 6 Norte 11 Norte 0 918.8 -- 88
2020-05-17 07:00:00 2.6 11 Norte 17 Noroeste 0 918.5 -- 92
2020-05-17 06:00:00 3.3 8 Noroeste 13 Noroeste 0 918.7 -- 90
2020-05-17 05:00:00 4 9 Noroeste 11 Noroeste 0 919 -- 89
2020-05-17 04:00:00 5.4 3 Sudoeste 9 Sur 0 919 -- 86
2020-05-17 03:00:00 5.7 7 Oeste 11 Sudoeste 0 919.1 -- 86
2020-05-17 02:00:00 5.8 10 Oeste 13 Oeste 0 919.3 -- 86
2020-05-17 01:00:00 7.3 6 Oeste 15 Sudeste 0 918.9 -- 79
2020-05-17 00:00:00 9.2 10 Sudeste 21 Sudeste 0 918.5 -- 73
2020-05-16 23:00:00 10.9 12 Sudeste 18 Sudeste 0 917.9 -- 69
2020-05-16 22:00:00 12.9 9 Sudeste 21 Sudeste 0 916.9 -- 64
2020-05-16 21:00:00 15.6 9 Este 17 Norte 0 916.2 -- 54
2020-05-16 20:00:00 17.5 9 Sur 18 Sudeste 0 915.5 -- 45
2020-05-16 19:00:00 18.5 5 Sudoeste 11 Sur 0 915.1 -- 43
2020-05-16 18:00:00 18.6 6 Sudoeste 21 Sur 0 915.1 -- 42
2020-05-16 17:00:00 17.2 10 Sudoeste 22 Sur 0 915.2 -- 46
2020-05-16 16:00:00 16.5 12 Sudeste 21 Sudeste 0 915.5 -- 48
2020-05-16 15:00:00 15.7 12 Sudeste 22 Sur 0 915.7 -- 50
2020-05-16 14:00:00 14.9 13 Sudeste 22 Sudeste 0 915.9 -- 52
2020-05-16 13:00:00 14.3 13 Sudeste 24 Este 0 916.5 -- 50
2020-05-16 12:00:00 13.5 8 Este 22 Sudeste 0 916.1 -- 52
2020-05-16 11:00:00 11.7 9 Nordeste 18 Nordeste 0 915.9 -- 61
2020-05-16 10:00:00 9.5 12 Nordeste 17 Nordeste 0 915.7 -- 70
2020-05-16 09:00:00 7.1 5 Nordeste 9 Norte 0 915.5 -- 82
2020-05-16 08:00:00 5.2 3 Noroeste 11 Noroeste 0 915.2 -- 90
2020-05-16 07:00:00 3.1 8 Noroeste 11 Noroeste 0 914.7 -- 89
2020-05-16 06:00:00 3.6 6 Oeste 9 Noroeste 0 914.4 -- 87
2020-05-16 05:00:00 4.1 0 Calma 5 Sudoeste 0 914.2 -- 87
2020-05-16 04:00:00 4.9 6 Sudoeste 8 Sudoeste 0 914.1 -- 85
2020-05-16 03:00:00 6.1 0 Calma 13 Nordeste 0 913.9 -- 81
2020-05-16 02:00:00 6.8 8 Norte 17 Norte 0 914.2 -- 79
2020-05-16 01:00:00 6.6 9 Norte 18 Norte 0 914.2 -- 80
2020-05-16 00:00:00 6.9 10 Norte 17 Nordeste 0 913.9 -- 79
2020-05-15 23:00:00 7.5 10 Norte 18 Nordeste 0 913.7 -- 75
2020-05-15 22:00:00 8.4 11 Norte 26 Norte 0 913 -- 72
2020-05-15 21:00:00 10.2 16 Norte 30 Norte 0 912.5 -- 65
2020-05-15 20:00:00 12.3 21 Norte 35 Norte 0 912 -- 60
2020-05-15 19:00:00 13 23 Norte 41 Norte 0 911.5 -- 60
2020-05-15 18:00:00 13 24 Norte 41 Norte 0 911.2 -- 65
2020-05-15 17:00:00 12 17 Norte 32 Norte 0.4 911.2 -- 72
2020-05-15 16:00:00 11.4 5 Este 28 Nordeste 0.1 911.6 -- 77
2020-05-15 15:00:00 12.6 15 Nordeste 26 Nordeste 0 911.2 -- 59
2020-05-15 14:00:00 12.6 15 Norte 30 Norte 0 911.3 -- 63
2020-05-15 13:00:00 12.3 12 Norte 22 Norte 0 911.2 -- 66
2020-05-15 12:00:00 12.2 0 Calma 9 Este 0 911 -- 67
2020-05-15 11:00:00 11.8 5 Este 11 Sudeste 0 910.8 -- 70
2020-05-15 10:00:00 10.6 7 Este 15 Este 0 910.4 -- 72
2020-05-15 09:00:00 9.7 10 Nordeste 17 Este 0 910 -- 77
2020-05-15 08:00:00 8.2 4 Norte 13 Norte 0 909.3 -- 84
2020-05-15 07:00:00 6.4 8 Norte -- -- 0 908.6 -- 91
2020-05-15 06:00:00 6.3 7 Noroeste 11 Norte 0 908 -- 89
2020-05-15 05:00:00 7.6 8 Norte 11 Norte 0 907.7 -- 89
2020-05-15 04:00:00 8.4 5 Norte 11 Norte 0 907.6 -- 90
2020-05-15 03:00:00 8.7 6 Norte 13 Nordeste 0 907.5 -- 86
2020-05-15 02:00:00 8.9 8 Norte 15 Nordeste 0 907.4 -- 84
2020-05-15 01:00:00 8.8 6 Norte 13 Norte 0 907.1 -- 87
2020-05-15 00:00:00 8.6 7 Nordeste 13 Norte 0 906.8 -- 89
2020-05-14 23:00:00 8.9 8 Norte 17 Norte 0 906 -- 88
2020-05-14 22:00:00 9.5 7 Norte 9 Norte 0 905.2 -- 93
2020-05-14 21:00:00 9.8 7 Norte 11 Norte 0 904.6 -- 90
2020-05-14 20:00:00 9.4 7 Norte 17 Norte 2.9 904 -- 93
2020-05-14 19:00:00 9.9 5 Nordeste 15 Norte 3.7 903.8 -- 92
2020-05-14 18:00:00 11.7 8 Norte 13 Norte 0.9 903.1 -- 84
2020-05-14 17:00:00 12.6 7 Sudoeste 24 Sur 0 902.1 -- 77
2020-05-14 16:00:00 12.5 17 Sur 30 Sudeste 0 901.9 -- 81
2020-05-14 15:00:00 14.3 17 Nordeste 30 Este 0 901.5 -- 67
2020-05-14 14:00:00 13.7 18 Nordeste 30 Nordeste 0 901.6 -- 76
2020-05-14 13:00:00 11.9 17 Nordeste 26 Nordeste 0.2 901.8 -- 83
2020-05-14 12:00:00 11.1 10 Nordeste 18 Este 1.7 901.7 -- 88
2020-05-14 11:00:00 10.8 11 Este 13 Este 0.1 901.6 -- 86
2020-05-14 10:00:00 10.9 6 Este 17 Nordeste 0 901.3 -- 85
2020-05-14 09:00:00 10.3 11 Norte 17 Norte 0 900.6 -- 88
2020-05-14 08:00:00 9.8 9 Norte 13 Norte 0 900.9 -- 91
2020-05-14 07:00:00 9.8 10 Nordeste 24 Este 0 900.6 -- 87
2020-05-14 06:00:00 9.6 14 Nordeste 21 Este 0 900.6 -- 89
2020-05-14 05:00:00 9.6 11 Nordeste 15 Nordeste 0.3 900.7 -- 93
2020-05-14 04:00:00 10.1 6 Norte 11 Norte 0.1 901.1 -- 89
2020-05-14 03:00:00 9.3 8 Norte 18 Norte 0 901 -- 90
2020-05-14 02:00:00 9.8 13 Norte 18 Norte 0 900.9 -- 91
2020-05-14 01:00:00 10.7 10 Norte 15 Norte 0 902.1 -- 92
2020-05-14 00:00:00 11.5 11 Nordeste 18 Este 0.1 902.4 -- 88
2020-05-13 23:00:00 12 6 Nordeste 18 Sur 0 902.2 -- 77
2020-05-13 22:00:00 12.8 13 Sur 28 Sur 0 901.4 -- 76
2020-05-13 21:00:00 14.8 10 Sur 22 Sur 0 900.6 -- 59
2020-05-13 20:00:00 16.1 12 Sur 22 Sur 0 900.2 -- 53
2020-05-13 19:00:00 17.1 10 Sudeste 21 Sudeste 0 900.1 -- 49
2020-05-13 18:00:00 16.6 11 Sudeste 21 Sudeste 0 900.2 -- 53
2020-05-13 17:00:00 15.7 13 Sur 18 Sur 0 900.5 -- 56
2020-05-13 16:00:00 16.5 6 Sur 18 Sur 0 900.6 -- 55
2020-05-13 15:00:00 15.1 7 Sudoeste 15 Sudeste 0 901 -- 62
2020-05-13 14:00:00 13.5 6 Sur 13 Sur 0 901.5 -- 71
2020-05-13 13:00:00 11.3 7 Sur 13 Sur 0 901.8 -- 80
2020-05-13 12:00:00 10.8 10 Sudoeste 17 Sudoeste 0 901.8 -- 85
2020-05-13 11:00:00 11.1 10 Sur 15 Sur 0 901.8 -- 80
2020-05-13 10:00:00 10.9 3 Este 8 Este 0 901.5 -- 81
2020-05-13 09:00:00 9.7 4 Nordeste 8 Nordeste 0 901.4 -- 87
2020-05-13 08:00:00 8.8 4 Sudeste 8 Este 0 901.4 -- 93
2020-05-13 07:00:00 8.7 4 Sudeste 8 Este 0 901.2 -- 94
2020-05-13 06:00:00 8.6 4 Sudoeste 8 Oeste 0 900.9 -- 95
2020-05-13 05:00:00 8.7 5 Oeste 9 Oeste 0 901 -- 95
2020-05-13 04:00:00 9.4 6 Oeste 9 Noroeste 0.1 901.5 -- 95
2020-05-13 03:00:00 9.7 4 Sur 9 Sur 0.5 902 -- 92
2020-05-13 02:00:00 9.9 8 Sudeste 11 Sudeste 0 902.6 -- 91
2020-05-13 01:00:00 10 6 Sur 21 Sudoeste 0.2 902.8 -- 91
2020-05-13 00:00:00 10.3 14 Sudoeste 18 Sudoeste 1 902.9 -- 90
2020-05-12 23:00:00 11.9 9 Sudeste 15 Este 0 902.7 -- 79
2020-05-12 22:00:00 12.6 7 Sudeste 13 Este 0 902 -- 77
2020-05-12 21:00:00 13.8 5 Norte 13 Norte 0 901.9 -- 73
2020-05-12 20:00:00 14.3 8 Norte 13 Nordeste 0 901.8 -- 70
2020-05-12 19:00:00 14.8 8 Nordeste 11 Nordeste 0 902.1 -- 65
2020-05-12 18:00:00 14.8 4 Noroeste 15 Sudoeste 0 902.6 -- 68
2020-05-12 17:00:00 14.9 3 Este 11 Sudoeste 0 903 -- 67
2020-05-12 16:00:00 13.8 7 Sudeste 15 Sudeste 0 904.1 -- 74
2020-05-12 15:00:00 13 8 Sudeste 15 Sudeste 0.1 904.7 -- 83
2020-05-12 14:00:00 11.3 10 Sudeste 21 Sudeste 0.6 905.5 -- 92
2020-05-12 13:00:00 10.8 9 Sudeste 15 Este 0 906.1 -- 88
2020-05-12 12:00:00 9.9 12 Nordeste 18 Nordeste 0.6 906.3 -- 95
2020-05-12 11:00:00 9.4 17 Este 26 Este 0.4 906.4 -- 90
2020-05-12 10:00:00 9.6 14 Este 22 Este 0 906.6 -- 89
2020-05-12 09:00:00 9.8 13 Este 22 Este 0 906.7 -- 90
2020-05-12 08:00:00 10.2 11 Sudeste 17 Sudeste 0 906.6 -- 91
2020-05-12 07:00:00 10.3 7 Norte 11 Este 0 904.7 -- 91
2020-05-12 06:00:00 10.6 8 Este 13 Este 0 905.7 -- 91
2020-05-12 05:00:00 10.7 11 Este 17 Este 0 906.3 -- 89
2020-05-12 04:00:00 10.8 10 Este 15 Nordeste 0 906.6 -- 89
2020-05-12 03:00:00 10.8 6 Este 15 Nordeste 0 907.1 -- 87
2020-05-12 02:00:00 10.8 14 Nordeste 24 Nordeste 0 907 -- 88
2020-05-12 01:00:00 11.2 9 Norte 17 Norte 0 906.9 -- 86
2020-05-12 00:00:00 11.4 8 Norte 13 Sudeste 3.2 907 -- 89
2020-05-11 23:00:00 12.3 12 Sur 15 Sur 0.5 906.9 -- 77
2020-05-11 22:00:00 13.5 6 Nordeste 11 Norte 0 905.9 -- 68
2020-05-11 21:00:00 14.6 9 Norte 17 Norte 0 905.1 -- 65
2020-05-11 20:00:00 16.1 7 Nordeste 9 Este 0 904.2 -- 57
2020-05-11 19:00:00 16.2 6 Este 13 Noroeste 0 904.1 -- 52
2020-05-11 18:00:00 14.8 10 Noroeste 22 Norte 0 904.3 -- 64
2020-05-11 17:00:00 16.6 5 Noroeste 21 Sur 0 904 -- 52
2020-05-11 16:00:00 17.3 9 Sudoeste 22 Sur 0 904.1 -- 50
2020-05-11 15:00:00 16.4 13 Sur 26 Sudoeste 0 904.2 -- 52
2020-05-11 14:00:00 15.7 12 Sur 24 Sur 0 904.2 -- 53
2020-05-11 13:00:00 14.7 12 Sur 24 Sur 0 904.2 -- 62
2020-05-11 12:00:00 13.8 7 Este 18 Sudeste 0 904 -- 68
2020-05-11 11:00:00 12.4 9 Sudeste 15 Sudeste 0 903.9 -- 76
2020-05-11 10:00:00 10.4 6 Sudeste 11 Este 0 903.7 -- 84
2020-05-11 09:00:00 7.9 8 Nordeste 11 Nordeste 0 903.3 -- 91
2020-05-11 08:00:00 6.5 0 Calma 8 Noroeste 0 903 -- 97
2020-05-11 07:00:00 6.4 5 Sudoeste 15 Sudoeste 0 902.9 -- 97
2020-05-11 06:00:00 6 3 Noroeste 8 Norte 0 902.8 -- 95
2020-05-11 05:00:00 6.6 5 Norte 11 Norte 0 902.7 -- 95
2020-05-11 04:00:00 7.7 5 Norte 9 Oeste 0 902.8 -- 95
2020-05-11 03:00:00 7.9 5 Sudoeste 8 Sudoeste 0 903.1 -- 93
2020-05-11 02:00:00 8.5 0 Calma 11 Noroeste 0 903.3 -- 93
2020-05-11 01:00:00 8.7 6 Noroeste 11 Oeste 0 903.8 -- 96
2020-05-11 00:00:00 8.7 6 Noroeste 11 Noroeste 0 903.7 -- 92
2020-05-10 23:00:00 9.8 9 Noroeste 13 Noroeste 0 903.8 -- 90
2020-05-10 22:00:00 10.5 9 Oeste 21 Oeste 0 903.5 -- 88
2020-05-10 21:00:00 11 6 Oeste 21 Sudoeste 0.6 903.1 -- 89
2020-05-10 20:00:00 12.6 8 Oeste 13 Oeste 0 902.6 -- 81
2020-05-10 19:00:00 12 8 Sudeste 15 Noroeste 0.2 902.1 -- 87
2020-05-10 18:00:00 11.4 5 Oeste 13 Noroeste 1.2 902.2 -- 88
2020-05-10 17:00:00 10.7 9 Noroeste 22 Noroeste 3.9 902.2 -- 89
2020-05-10 16:00:00 14.5 8 Oeste 26 Oeste 0 902 -- 68
2020-05-10 15:00:00 14.1 21 Oeste 28 Oeste 0 902.1 -- 67
2020-05-10 14:00:00 12.6 10 Oeste 18 Oeste 0.1 902.5 -- 72
2020-05-10 13:00:00 12 13 Oeste 22 Oeste 0 902.9 -- 75
2020-05-10 12:00:00 11.5 8 Oeste 17 Oeste 0 903 -- 78
2020-05-10 11:00:00 10.7 12 Oeste 18 Oeste 0 902.9 -- 82
2020-05-10 10:00:00 9.5 11 Oeste 18 Oeste 0 902.8 -- 90
2020-05-10 09:00:00 9 5 Oeste 8 Oeste 0 902.6 -- 93
2020-05-10 08:00:00 8.6 4 Norte 9 Sudoeste 0 902.4 -- 95
2020-05-10 07:00:00 8.8 5 Sur 9 Sur 0 902.1 -- 92
2020-05-10 06:00:00 8.8 8 Sur 15 Sur 0 902.3 -- 93
2020-05-10 05:00:00 8.8 10 Sur 15 Sur 0 902.8 -- 90
2020-05-10 04:00:00 9.1 5 Sur 13 Sudoeste 0 902.5 -- 89
2020-05-10 03:00:00 9.3 10 Sudoeste 18 Sur 0 902.9 -- 89
2020-05-10 02:00:00 10.3 6 Este 11 Nordeste 0 903.3 -- 89
2020-05-10 01:00:00 10.6 5 Este 13 Oeste 0 903.6 -- 90
2020-05-10 00:00:00 10.6 12 Oeste 42 Sudoeste 0.4 904 -- 89
2020-05-09 23:00:00 12.1 30 Sudoeste 39 Sudoeste 0 904.1 -- 75
2020-05-09 22:00:00 14.2 8 Sur 18 Sur 0 903.3 -- 55
2020-05-09 21:00:00 15.8 10 Sur 26 Sudoeste 0 903.4 -- 51
2020-05-09 20:00:00 16.5 16 Sur 33 Sudoeste 0 903.6 -- 44
2020-05-09 19:00:00 17.3 21 Sur 33 Sur 0 903.4 -- 45
2020-05-09 18:00:00 16.7 21 Sur 32 Sudoeste 0 903.7 -- 49
2020-05-09 17:00:00 16.2 22 Sur 35 Sur 0 904.7 -- 55
2020-05-09 16:00:00 16.5 24 Sur 37 Sur 0 905.3 -- 58
2020-05-09 15:00:00 17.2 17 Sur 33 Sudeste 0 905.5 -- 55
2020-05-09 14:00:00 16.6 18 Sur 32 Sur 0 905.8 -- 56
2020-05-09 13:00:00 15.3 17 Sur 26 Sur 0 906.4 -- 67
2020-05-09 12:00:00 14.9 12 Sudoeste 26 Sudoeste 0 906.5 -- 74
2020-05-09 11:00:00 13.8 16 Sudoeste 26 Sudoeste 0 906.7 -- 81
2020-05-09 10:00:00 14.2 7 Sudeste 11 Sudeste 0 906.8 -- 82
2020-05-09 09:00:00 13.1 7 Este 11 Nordeste 0 907.1 -- 85
2020-05-09 08:00:00 11.2 8 Nordeste 11 Nordeste 0 907.1 -- 93
2020-05-09 07:00:00 10.7 4 Norte 9 Nordeste 0 907.1 -- 93
2020-05-09 06:00:00 10.6 0 Calma 9 Nordeste 0 907.3 -- 90
2020-05-09 05:00:00 11.4 4 Nordeste 11 Norte 0 907.4 -- 88
2020-05-09 04:00:00 11.5 8 Nordeste 13 Nordeste 0 907.6 -- 90
2020-05-09 03:00:00 11 9 Norte 15 Norte 0 907.9 -- 90
2020-05-09 02:00:00 11.1 11 Norte 17 Norte 0 908.4 -- 92
2020-05-09 01:00:00 11.6 8 Nordeste 15 Noroeste 0 908.8 -- 91
2020-05-09 00:00:00 12.5 8 Oeste 13 Norte 0 909 -- 88
2020-05-08 23:00:00 13.6 9 Nordeste 13 Nordeste 0 908.8 -- 87
2020-05-08 22:00:00 15.1 12 Este 21 Este 0 908.6 -- 77
2020-05-08 21:00:00 16 6 Nordeste 22 Sur 5.1 908.4 -- 83
2020-05-08 20:00:00 19.7 11 Nordeste 15 Nordeste 0 907.6 -- 61
2020-05-08 19:00:00 19.8 6 Este 17 Sudeste 0 908.2 -- 62
2020-05-08 18:00:00 20.2 8 Sudeste 17 Sudeste 0 908.2 -- 63
2020-05-08 17:00:00 18.6 11 Sudeste 18 Sudeste 0 909.6 -- 62
2020-05-08 16:00:00 19.7 10 Sur 21 Sudeste 0 909.8 -- 58
2020-05-08 15:00:00 18.6 9 Sur 17 Sur 0 910.5 -- 63
2020-05-08 14:00:00 18.3 10 Sur 21 Sur 0 910.9 -- 65
2020-05-08 13:00:00 17.3 6 Sudeste 15 Sudeste 0 911.2 -- 69
2020-05-08 12:00:00 15.7 4 Este 13 Sur 0 911.4 -- 77
2020-05-08 11:00:00 14.1 5 Nordeste 13 Nordeste 0 911.4 -- 86
2020-05-08 10:00:00 12.3 6 Nordeste 17 Sudeste 0.5 911.5 -- 93
2020-05-08 09:00:00 12.1 8 Nordeste 22 Nordeste 0.2 911.8 -- 98
2020-05-08 08:00:00 12.1 7 Sudeste 28 Sur 0.5 912 -- 96
2020-05-08 07:00:00 11.9 14 Norte 26 Norte 1.9 910.7 -- 95
2020-05-08 06:00:00 12.1 6 Este 32 Norte 0.8 911.1 -- 92
2020-05-08 05:00:00 12.4 13 Norte 22 Norte 3.3 911.8 -- 87
2020-05-08 04:00:00 13.3 7 Oeste 42 Sur 4.3 912 -- 81
2020-05-08 03:00:00 13.4 12 Norte 17 Norte 0 910.5 -- 76
2020-05-08 02:00:00 13.8 12 Norte 21 Norte 0 911 -- 75
2020-05-08 01:00:00 13.9 10 Norte 45 Sudoeste 0 911.3 -- 68
2020-05-08 00:00:00 16.1 6 Oeste 13 Oeste 0 912 -- 68
2020-05-07 23:00:00 17.8 7 Nordeste 13 Sudeste 0 910.8 -- 59
2020-05-07 22:00:00 19 10 Sudeste 37 Este 0 910.2 -- 53
2020-05-07 21:00:00 21.8 3 Sudeste 11 Este 0 909.7 -- 41
2020-05-07 20:00:00 22.4 6 Sudeste 18 Sur 0 909.8 -- 40
2020-05-07 19:00:00 22.7 14 Sur 26 Sur 0 910.5 -- 36
2020-05-07 18:00:00 23.2 17 Sur 28 Sur 0 910.4 -- 33
2020-05-07 17:00:00 23.6 17 Sur 41 Sudeste 0 910.6 -- 35
2020-05-07 16:00:00 23.6 14 Sudeste 28 Sudeste 0 910.8 -- 35
2020-05-07 15:00:00 22.5 10 Sudeste 24 Este 0 911.3 -- 38
2020-05-07 14:00:00 21.8 13 Este 24 Este 0 911.9 -- 40
2020-05-07 13:00:00 20.6 14 Sudeste 26 Este 0 912.6 -- 44
2020-05-07 12:00:00 19.9 15 Este 24 Este 0 912.6 -- 47
2020-05-07 11:00:00 18.5 14 Este 22 Sudeste 0 912.7 -- 50
2020-05-07 10:00:00 16.8 10 Nordeste 18 Nordeste 0 913.3 -- 62
2020-05-07 09:00:00 14.6 11 Norte 17 Norte 0 913.4 -- 72
2020-05-07 08:00:00 10.8 11 Norte 15 Norte 0 913.3 -- 82
2020-05-07 07:00:00 10.2 10 Norte 15 Norte 0 913.3 -- 80
2020-05-07 06:00:00 10.8 10 Norte 17 Norte 0 913.4 -- 78
2020-05-07 05:00:00 10.7 9 Norte 15 Norte 0 913.6 -- 77
2020-05-07 04:00:00 10.6 12 Norte 15 Norte 0 914 -- 76
2020-05-07 03:00:00 11.3 10 Norte 13 Nordeste 0 914.6 -- 74
2020-05-07 02:00:00 11.9 10 Norte 15 Norte 0 914.8 -- 71
2020-05-07 01:00:00 12.2 12 Norte 15 Norte 0 914.8 -- 68
2020-05-07 00:00:00 12.6 6 Norte 11 Norte 0 914.9 -- 64
2020-05-06 23:00:00 15.2 0 Calma 8 Sudeste 0 914.9 -- 57
2020-05-06 22:00:00 17.5 4 Sudeste 9 Sudeste 0 914.4 -- 45
2020-05-06 21:00:00 19.3 8 Sudeste 17 Sur 0 914 -- 40
2020-05-06 20:00:00 20.4 11 Sudeste 17 Sudeste 0 913.9 -- 38
2020-05-06 19:00:00 20.5 11 Sur 24 Sudeste 0 914 -- 36
2020-05-06 18:00:00 19.3 10 Sudeste 22 Sur 0 913.9 -- 38
2020-05-06 17:00:00 20.1 10 Este 22 Sur 0 914.2 -- 38
2020-05-06 16:00:00 19.4 10 Sur 26 Sur 0 914.6 -- 42
2020-05-06 15:00:00 18.5 12 Sur 22 Sudoeste 0 914.6 -- 43
2020-05-06 14:00:00 18.3 10 Sur 22 Sur 0 915.1 -- 47
2020-05-06 13:00:00 16.9 10 Sudeste -- -- 0 915.3 -- 54
2020-05-06 12:00:00 16.5 10 Sur 17 Sur 0 915.3 -- 55
2020-05-06 11:00:00 15.1 5 Sudeste 11 Sudeste 0 915.1 -- 58
2020-05-06 10:00:00 12.7 6 Este -- -- -- 914.9 -- 63
2020-05-06 09:00:00 9.8 5 Nordeste 11 Nordeste 0 914.7 -- 75
2020-05-06 08:00:00 6.4 0 Calma 8 Sudoeste 0 914.3 -- 85
2020-05-06 07:00:00 6.1 3 Noroeste 13 Norte 0 913.8 -- 82
2020-05-06 06:00:00 5.3 10 Norte 13 Norte 0 913.6 -- 85
2020-05-06 05:00:00 6.4 3 Nordeste 13 Noroeste 0 913.7 -- 81
2020-05-06 04:00:00 7.2 9 Noroeste 13 Noroeste 0 913.6 -- 79
2020-05-06 03:00:00 7.2 8 Noroeste 11 Norte 0 913.5 -- 79
2020-05-06 02:00:00 7.9 8 Noroeste 13 Norte 0 913.6 -- 78
2020-05-06 01:00:00 9.5 4 Norte 9 Norte 0 913.8 -- 73
2020-05-06 00:00:00 10.5 3 Norte 17 Norte 0 913.7 -- 71
2020-05-05 23:00:00 11.4 15 Oeste 21 Oeste 0 913.4 -- 70
2020-05-05 22:00:00 12.5 10 Sudoeste 22 Sudoeste 0 912.8 -- 62
2020-05-05 21:00:00 14.2 17 Sudoeste 28 Sudoeste 0 912 -- 55
2020-05-05 20:00:00 16.5 21 Sudoeste 37 Sudoeste 0 911.6 -- 45
2020-05-05 19:00:00 17.3 27 Sudoeste 41 Sudoeste 0 911.6 -- 42
2020-05-05 18:00:00 17.4 27 Sudoeste 42 Sudoeste 0 911.2 -- 39
2020-05-05 17:00:00 18 22 Sudoeste 33 Sudoeste 0 911.2 -- 40
2020-05-05 16:00:00 17.5 18 Sur 30 Sudoeste 0 911.6 -- 43
2020-05-05 15:00:00 16.6 14 Sur 22 Sur 0 911.8 -- 47
2020-05-05 14:00:00 16.3 14 Sur 28 Sur 0 912 -- 51
2020-05-05 13:00:00 14.7 6 Este 22 Sudeste 0 912.2 -- 55
2020-05-05 12:00:00 13.6 10 Sur 26 Sur 0 912.3 -- 64
2020-05-05 11:00:00 12.6 7 Este 13 Sudeste 0 912 -- 72
2020-05-05 10:00:00 10.5 2 Nordeste 9 Este 0 911.6 -- 77
2020-05-05 09:00:00 8 9 Nordeste 13 Nordeste 0 911.2 -- 86
2020-05-05 08:00:00 6.4 0 Calma 8 Norte 0 910.7 0.7 86
2020-05-05 07:00:00 5.2 5 Noroeste 13 Norte 0 910.4 -- 87
2020-05-05 06:00:00 7.4 9 Nordeste 13 Nordeste 0 910.1 -- 82
2020-05-05 05:00:00 8.8 9 Sudoeste 15 Sudoeste 0 910 -- 77
2020-05-05 04:00:00 9.1 6 Sudoeste 13 Oeste 0 909.8 -- 78
2020-05-05 03:00:00 10.7 10 Sudoeste 26 Sur 0 909.7 -- 72
2020-05-05 02:00:00 11.8 14 Sur 21 Sudoeste 0 910 -- 69
2020-05-05 01:00:00 10.6 4 Sudoeste 13 Sudoeste 0 909.8 -- 78
2020-05-05 00:00:00 11.2 9 Oeste 26 Sur 0 909.7 -- 73
2020-05-04 23:00:00 13.3 20 Sur 26 Sur 0 909.4 -- 65
2020-05-04 22:00:00 14 20 Sudoeste 45 Sudoeste 0 908.8 -- 62
2020-05-04 21:00:00 15.7 33 Sudoeste 65 Sudoeste 0 908.2 -- 56
2020-05-04 20:00:00 17.6 45 Sudoeste 63 Sudoeste 0 907.7 -- 52
2020-05-04 19:00:00 19.8 50 Sudoeste 68 Sur 0 906.6 -- 42
2020-05-04 18:00:00 20.8 54 Sudoeste 78 Sudoeste 0 905.9 -- 40
2020-05-04 17:00:00 20.4 23 Sudoeste 50 Sudoeste 0 905.3 -- 55
2020-05-04 16:00:00 21.4 24 Sudoeste 42 Sudoeste 0 906.1 -- 51
2020-05-04 15:00:00 21.7 14 Sur 28 Sudeste 0 905.9 -- 52
2020-05-04 14:00:00 20.1 16 Sudeste 28 Sudeste 0 905.9 -- 55
2020-05-04 13:00:00 20.4 16 Sur 24 Sudeste 0 907.5 -- 49
2020-05-04 12:00:00 19 11 Sudeste 22 Este 0 907.6 -- 57
2020-05-04 11:00:00 18.1 10 Este 15 Este 0 907.9 -- 58
2020-05-04 10:00:00 17 12 Este 18 Este 0 908.5 -- 59
2020-05-04 09:00:00 16.7 8 Nordeste 15 Nordeste 0 908.6 -- 55
2020-05-04 08:00:00 13.3 9 Norte 13 Norte 0 908.5 -- 68
2020-05-04 07:00:00 12.6 8 Norte 13 Norte 0 908.6 -- 69
2020-05-04 06:00:00 13.1 11 Norte 17 Norte 0 908.9 -- 69
2020-05-04 05:00:00 13 10 Norte 18 Norte 0 909.6 -- 70
2020-05-04 04:00:00 13.4 12 Norte 17 Norte 0 910.2 -- 69
2020-05-04 03:00:00 13.4 11 Norte 17 Norte 0 911 -- 69
2020-05-04 02:00:00 13.2 10 Norte 15 Norte 0 911.3 -- 70
2020-05-04 01:00:00 14.9 5 Norte 11 Norte 0 911.6 -- 65
2020-05-04 00:00:00 16.4 5 Nordeste 11 Este 0 911.8 -- 62
2020-05-03 23:00:00 18.9 5 Este 13 Sudeste 0 911.9 -- 52
2020-05-03 22:00:00 20.2 8 Sudeste 17 Este 0 911.7 -- 47
2020-05-03 21:00:00 22.2 9 Sudeste 13 Sudeste 0 911.5 -- 40
2020-05-03 20:00:00 22.6 12 Sudeste 22 Sudeste 0 911.4 -- 36
2020-05-03 19:00:00 23.3 12 Este 21 Sur 0 911.6 -- 34
2020-05-03 18:00:00 23.4 11 Sudeste 21 Sudeste 0 912.2 -- 33
2020-05-03 17:00:00 23.1 12 Este 24 Sudeste 0 912.6 -- 32
2020-05-03 16:00:00 22.2 13 Sur 21 Sur 0 913.1 -- 38
2020-05-03 15:00:00 21 13 Sudeste 24 Sur 0 913.4 -- 47
2020-05-03 14:00:00 20 11 Sur 30 Sudeste 0 914 -- 51
2020-05-03 13:00:00 18.9 12 Sur 18 Sudeste 0 914.7 -- 59
2020-05-03 12:00:00 17.3 11 Sudeste 17 Sudeste 0 914.9 -- 61
2020-05-03 11:00:00 16 6 Sudeste 15 Este 0 915.1 -- 68
2020-05-03 10:00:00 14.1 7 Este 13 Este 0 915.4 -- 74
2020-05-03 09:00:00 11.4 8 Norte 13 Norte 0 915 -- 84
2020-05-03 08:00:00 7.3 2 Norte 11 Norte 0 914.8 -- 90
2020-05-03 07:00:00 8.7 4 Nordeste 11 Norte 0 914.5 -- 88
2020-05-03 06:00:00 8.4 8 Norte 15 Norte 0 914.6 -- 88
2020-05-03 05:00:00 8 10 Norte 15 Norte 0 914.6 -- 87
2020-05-03 04:00:00 8.1 10 Norte 13 Norte 0 914.6 -- 85
2020-05-03 03:00:00 9.2 0 Calma -- -- 0 915.2 -- 81
2020-05-03 02:00:00 10.6 2 Noroeste 9 Oeste 0 915.6 -- 78
2020-05-03 01:00:00 11.8 4 Oeste 13 Oeste 0 915.6 -- 75
2020-05-03 00:00:00 12.6 6 Norte 15 Noroeste 0 915.5 -- 74
2020-05-02 23:00:00 13.2 13 Noroeste 15 Noroeste 0 915.5 -- 72
2020-05-02 22:00:00 15.6 9 Noroeste 11 Noroeste 0 915 -- 64
2020-05-02 21:00:00 18.6 5 Oeste 11 Sudoeste 0 914.9 -- 61
2020-05-02 20:00:00 20.1 10 Sudoeste 15 Sudoeste 0 914.9 -- 51
2020-05-02 19:00:00 20.1 9 Sur 15 Sur 0 915.2 -- 53
2020-05-02 18:00:00 19.2 9 Sudoeste 24 Sudoeste 0 915.3 -- 55
2020-05-02 17:00:00 19.7 10 Sudoeste 24 Sur 0 915.3 -- 53
2020-05-02 16:00:00 19.2 15 Sudoeste 26 Sur 0 915.8 -- 56
2020-05-02 15:00:00 17.8 13 Oeste 28 Oeste 0 915.9 -- 59
2020-05-02 14:00:00 17.5 15 Oeste 33 Oeste 0 916.1 -- 61
2020-05-02 13:00:00 16.8 20 Oeste 33 Oeste 0 916.3 -- 64
2020-05-02 12:00:00 15.7 13 Sur 24 Sudoeste 0 916.1 -- 69
2020-05-02 11:00:00 14.1 9 Sudoeste 15 Sudoeste 0 916.2 -- 78
2020-05-02 10:00:00 12 8 Sudoeste 11 Sudoeste 0 916.2 -- 92
2020-05-02 09:00:00 10.9 2 Sudeste 8 Sudeste 0 916 -- 97
2020-05-02 08:00:00 9.6 0 Calma 9 Sudoeste 0 915.6 -- 100
2020-05-02 07:00:00 8.9 6 Sudoeste 13 Sudoeste 0 915.3 -- 99
2020-05-02 06:00:00 9.1 9 Sudoeste 11 Sudoeste 0 915.5 -- 99
2020-05-02 05:00:00 9.6 9 Oeste 15 Sudoeste 0 915.6 -- 98
2020-05-02 04:00:00 10.8 9 Sudoeste 13 Sudoeste 0 915.5 -- 97
2020-05-02 03:00:00 11.2 9 Sudoeste 18 Sudoeste 0 916 -- 93
2020-05-02 02:00:00 11.3 16 Oeste 26 Oeste 0 916 -- 92
2020-05-02 01:00:00 12.1 11 Oeste 28 Oeste 0 916.1 -- 88
2020-05-02 00:00:00 13 22 Oeste 41 Oeste 0 916.2 -- 84
2020-05-01 23:00:00 13.3 12 Oeste 37 Oeste 0 915.9 -- 83
2020-05-01 22:00:00 13.7 17 Oeste 39 Oeste 0 914.9 -- 82
2020-05-01 21:00:00 14.7 26 Oeste 52 Oeste 0 914.2 -- 78
2020-05-01 20:00:00 16.5 32 Oeste 50 Oeste 0 913.9 -- 73
2020-05-01 19:00:00 16.4 25 Oeste 48 Oeste 0 913.7 -- 73
2020-05-01 18:00:00 17.1 29 Oeste 48 Oeste 0 913.3 -- 71
2020-05-01 17:00:00 17.3 36 Oeste 50 Oeste 0 913.4 -- 71
2020-05-01 16:00:00 16.4 31 Oeste 46 Oeste 0 913.6 -- 78
2020-05-01 15:00:00 15.1 28 Oeste 46 Oeste 0 913.4 -- 87
2020-05-01 14:00:00 14.5 33 Oeste 46 Oeste 0 913.5 -- 86
2020-05-01 13:00:00 15.1 24 Oeste 39 Oeste 0.1 913.2 -- 87
2020-05-01 12:00:00 13.5 26 Oeste 39 Oeste 0 913 -- 92
2020-05-01 11:00:00 12.3 22 Sudoeste 30 Sudoeste 0.6 912.3 -- 99
2020-05-01 10:00:00 11.6 22 Sudoeste 33 Sudoeste 0.3 912.1 -- 99
2020-05-01 09:00:00 10.6 27 Sudoeste 37 Sur 0.3 911.6 -- 99
2020-05-01 08:00:00 10.2 31 Sudoeste 41 Sudoeste 0.2 910.9 -- 99
2020-05-01 07:00:00 10.2 27 Sudoeste 35 Sudoeste 0.3 910.5 -- 99
2020-05-01 06:00:00 10 21 Sudoeste 33 Sudoeste 0.7 910.7 -- 99
2020-05-01 05:00:00 9.8 23 Sudoeste 33 Sudoeste 0.3 910.8 -- 99
2020-05-01 04:00:00 9.7 24 Sudoeste 37 Sudoeste 0.9 910.5 -- 98
2020-05-01 03:00:00 9.7 20 Sudoeste 30 Sur 0.2 911.2 -- 98
2020-05-01 02:00:00 9.6 21 Sudoeste 35 Sudoeste 0.3 911.5 -- 98
2020-05-01 01:00:00 9.6 26 Sudoeste 39 Sudoeste 0.9 911.4 -- 98
2020-05-01 00:00:00 9.6 21 Sudoeste 35 Sudoeste 1.1 911.8 -- 97
2020-04-30 23:00:00 9.7 25 Sudoeste 33 Sudoeste 0 911.7 -- 94
2020-04-30 22:00:00 9.9 20 Sudoeste 37 Sudoeste 0 911.4 -- 92
2020-04-30 21:00:00 9.8 29 Sudoeste 41 Sudoeste 0.1 910.6 -- 92
2020-04-30 20:00:00 10.5 30 Sudoeste 46 Sudoeste 0 910.6 -- 83
2020-04-30 19:00:00 11.3 35 Sudoeste 48 Sudoeste 0 910.7 -- 75
2020-04-30 18:00:00 11.9 33 Sudoeste 45 Sudoeste 0 910.4 -- 72
2020-04-30 17:00:00 13.3 20 Sudoeste 39 Oeste 0 910.1 -- 63
2020-04-30 16:00:00 14.1 22 Oeste 37 Oeste 0 910.4 -- 59
2020-04-30 15:00:00 14.5 27 Oeste 45 Oeste 0 910.4 -- 57
2020-04-30 14:00:00 14 32 Oeste 45 Oeste 0 910.4 -- 58
2020-04-30 13:00:00 13.2 29 Oeste 46 Oeste 0 910.2 -- 59
2020-04-30 12:00:00 12.4 27 Oeste 39 Oeste 0 910.3 -- 60
2020-04-30 11:00:00 10.9 23 Oeste 46 Oeste 0 909.8 -- 63
2020-04-30 10:00:00 8.7 31 Oeste 50 Oeste 0 909.3 -- 67
2020-04-30 09:00:00 7.3 27 Oeste 45 Oeste 0 909 -- 80
2020-04-30 08:00:00 6.7 14 Sudoeste 22 Sudoeste 0 908.5 -- 91
2020-04-30 07:00:00 6.5 17 Sudoeste 24 Sur 0 908.2 -- 90
2020-04-30 06:00:00 6.5 14 Sur 24 Sur 0 908.1 -- 91
2020-04-30 05:00:00 6.5 18 Sudoeste 30 Sudoeste 0 908.5 -- 89
2020-04-30 04:00:00 6.9 17 Sur 37 Sudoeste 0 908.9 -- 88
2020-04-30 03:00:00 7.2 23 Sudoeste 39 Sudoeste 0 909.1 -- 82
2020-04-30 02:00:00 7.3 26 Sudoeste 37 Sudoeste 0 909.5 -- 81
2020-04-30 01:00:00 7.4 23 Sudoeste 39 Sudoeste 0 909.6 -- 80
2020-04-30 00:00:00 8.5 26 Sudoeste 41 Sudoeste 0 909.6 -- 70
2020-04-29 23:00:00 9.2 24 Sudoeste 35 Sudoeste 0 909.4 -- 72
2020-04-29 22:00:00 9.6 26 Sudoeste 32 Sudoeste 0 909.2 -- 70
2020-04-29 21:00:00 10.4 17 Sudoeste 32 Sudoeste 0 909.1 -- 64
2020-04-29 20:00:00 11.3 13 Oeste 46 Oeste 0 909.2 -- 62
2020-04-29 19:00:00 12.5 22 Oeste 52 Sur 0 908.7 -- 57
2020-04-29 18:00:00 12.9 45 Sudoeste 65 Sudoeste 0 908.6 -- 56
2020-04-29 17:00:00 12.8 42 Sudoeste 63 Sudoeste 0 908.3 -- 70
2020-04-29 16:00:00 10.9 33 Sur 55 Sudoeste 0 909 -- 81
2020-04-29 15:00:00 10.3 37 Sur 52 Sudoeste 0 909.2 -- 81
2020-04-29 14:00:00 9.6 35 Sur 48 Sur 0 910 -- 82
2020-04-29 13:00:00 9 32 Sudoeste 46 Sudoeste 0 910.2 -- 83
2020-04-29 12:00:00 8.8 35 Sudoeste 52 Sudoeste 0 910.3 -- 82
2020-04-29 11:00:00 8.7 35 Sudoeste 48 Sudoeste 0 910.4 -- 82
2020-04-29 10:00:00 8.4 22 Sudoeste 32 Sur 0 910.2 -- 83
2020-04-29 09:00:00 7.5 19 Sudoeste 26 Sudoeste 0 910.5 -- 87
2020-04-29 08:00:00 7.4 12 Sudoeste 17 Sudoeste 0 910.2 -- 87
2020-04-29 07:00:00 7.5 12 Sur 21 Sur 0 909.9 -- 86
2020-04-29 06:00:00 7.2 8 Sudoeste 15 Sudoeste 0 910.5 -- 83
2020-04-29 05:00:00 7.1 10 Sudoeste 15 Sudoeste 0 910.5 -- 81
2020-04-29 04:00:00 6.7 4 Noroeste 11 Sudoeste 0 910.7 -- 80
2020-04-29 03:00:00 7.3 8 Sudoeste 11 Sur 0 911.3 -- 71
2020-04-29 02:00:00 7.7 8 Sudoeste 18 Oeste 0 911.4 -- 69
2020-04-29 01:00:00 7.9 11 Oeste 18 Oeste 0 911.4 -- 66
2020-04-29 00:00:00 6.7 8 Oeste 21 Oeste 0 911.5 -- 72